createdAt,value
2022-10-18T00:01:57.871Z,16.40
2022-10-18T00:04:27.478Z,16.10
2022-10-18T00:06:55.657Z,16.90
2022-10-18T00:09:24.222Z,17.20
2022-10-18T00:11:52.471Z,16.00
2022-10-18T00:14:20.836Z,14.90
2022-10-18T00:16:49.028Z,15.20
2022-10-18T00:19:17.782Z,14.80
2022-10-18T00:21:47.280Z,15.10
2022-10-18T00:24:15.496Z,15.90
2022-10-18T00:26:43.937Z,14.90
2022-10-18T00:29:16.556Z,17.30
2022-10-18T00:31:45.626Z,14.90
2022-10-18T00:34:16.682Z,17.10
2022-10-18T00:36:47.989Z,16.90
2022-10-18T00:39:19.035Z,15.80
2022-10-18T00:41:47.828Z,17.10
2022-10-18T00:45:13.565Z,15.90
2022-10-18T00:47:43.418Z,16.90
2022-10-18T00:50:12.624Z,15.40
2022-10-18T00:52:45.388Z,17.70
2022-10-18T00:55:14.180Z,14.70
2022-10-18T00:57:44.963Z,14.80
2022-10-18T01:00:14.746Z,15.90
2022-10-18T01:02:45.440Z,17.40
2022-10-18T01:05:15.094Z,17.50
2022-10-18T01:08:21.174Z,15.70
2022-10-18T01:11:01.937Z,15.30
2022-10-18T01:13:46.341Z,17.10
2022-10-18T01:16:23.078Z,16.80
2022-10-18T01:18:58.898Z,14.70
2022-10-18T01:21:39.343Z,15.20
2022-10-18T01:24:48.288Z,16.00
2022-10-18T01:27:36.706Z,15.20
2022-10-18T01:33:03.651Z,15.80
2022-10-18T01:35:39.815Z,14.80
2022-10-18T01:38:17.068Z,17.50
2022-10-18T01:40:48.855Z,15.30
2022-10-18T01:43:19.776Z,16.50
2022-10-18T01:45:48.768Z,15.70
2022-10-18T01:48:19.514Z,15.10
2022-10-18T01:50:47.710Z,14.90
2022-10-18T01:53:28.773Z,14.50
2022-10-18T01:56:18.744Z,17.20
2022-10-18T01:59:10.813Z,15.70
2022-10-18T02:01:50.191Z,16.10
2022-10-18T02:04:30.985Z,15.20
2022-10-18T02:07:07.241Z,15.10
2022-10-18T02:09:42.587Z,14.50
2022-10-18T02:12:15.459Z,16.20
2022-10-18T02:14:46.109Z,16.90
2022-10-18T02:17:16.622Z,17.10
2022-10-18T02:19:50.321Z,15.00
2022-10-18T02:22:19.748Z,15.30
2022-10-18T02:24:53.113Z,16.60
2022-10-18T02:27:21.818Z,14.90
2022-10-18T02:32:26.995Z,14.80
2022-10-18T02:35:02.415Z,15.20
2022-10-18T02:37:36.497Z,14.70
2022-10-18T02:40:07.930Z,15.10
2022-10-18T02:42:37.539Z,17.40
2022-10-18T02:45:08.165Z,16.30
2022-10-18T02:47:36.332Z,16.50
2022-10-18T02:50:06.991Z,16.80
2022-10-18T02:52:35.208Z,17.10
2022-10-18T02:55:03.632Z,14.70
2022-10-18T02:57:32.316Z,15.70
2022-10-18T03:00:00.870Z,17.30
2022-10-18T03:02:29.231Z,14.30
2022-10-18T03:04:57.544Z,14.60
2022-10-18T03:07:27.418Z,14.90
2022-10-18T03:12:24.169Z,14.80
2022-10-18T03:14:52.407Z,14.20
2022-10-18T03:17:20.593Z,16.30
2022-10-18T03:19:49.937Z,14.80
2022-10-18T03:22:18.156Z,14.20
2022-10-18T03:24:47.718Z,15.50
2022-10-18T03:27:15.886Z,15.20
2022-10-18T03:29:44.096Z,16.40
2022-10-18T03:32:12.332Z,17.00
2022-10-18T03:34:40.726Z,14.30
2022-10-18T03:37:09.199Z,14.90
2022-10-18T03:39:37.369Z,15.10
2022-10-18T03:42:06.967Z,15.30
2022-10-18T03:44:35.248Z,15.30
2022-10-18T03:49:34.894Z,15.00
2022-10-18T03:52:03.105Z,17.20
2022-10-18T03:54:31.758Z,15.90
2022-10-18T03:56:59.994Z,14.10
2022-10-18T03:59:29.534Z,16.00
2022-10-18T04:01:57.862Z,14.00
2022-10-18T04:04:26.151Z,16.40
2022-10-18T04:06:54.553Z,14.90
2022-10-18T04:09:22.749Z,13.90
2022-10-18T04:11:51.654Z,14.00
2022-10-18T04:14:21.311Z,14.10
2022-10-18T04:16:50.849Z,16.30
2022-10-18T04:19:19.157Z,14.20
2022-10-18T04:21:47.371Z,15.90
2022-10-18T04:24:17.479Z,16.40
2022-10-18T04:26:45.706Z,14.40
2022-10-18T04:29:13.931Z,14.50
2022-10-18T04:31:42.131Z,14.60
2022-10-18T04:34:12.109Z,16.40
2022-10-18T04:36:40.392Z,16.20
2022-10-18T04:39:08.597Z,14.90
2022-10-18T04:41:36.880Z,16.40
2022-10-18T04:44:05.370Z,15.40
2022-10-18T04:49:02.530Z,14.90
2022-10-18T04:51:32.229Z,15.90
2022-10-18T04:54:00.559Z,15.30
2022-10-18T04:56:28.758Z,17.90
2022-10-18T04:58:56.987Z,13.70
2022-10-18T05:01:25.190Z,13.70
2022-10-18T05:03:54.354Z,16.20
2022-10-18T05:06:23.583Z,14.50
2022-10-18T05:08:53.138Z,14.80
2022-10-18T05:11:21.471Z,13.60
2022-10-18T05:13:50.925Z,14.70
2022-10-18T05:16:19.450Z,13.90
2022-10-18T05:18:47.912Z,13.40
2022-10-18T05:21:17.071Z,14.70
2022-10-18T05:23:45.273Z,14.40
2022-10-18T05:26:14.812Z,16.50
2022-10-18T05:28:42.994Z,14.10
2022-10-18T05:31:12.595Z,14.80
2022-10-18T05:33:40.861Z,14.50
2022-10-18T05:38:42.815Z,16.00
2022-10-18T05:41:11.969Z,13.90
2022-10-18T05:43:42.244Z,15.80
2022-10-18T05:46:15.034Z,13.80
2022-10-18T05:48:45.281Z,13.50
2022-10-18T05:53:42.064Z,13.70
2022-10-18T05:56:12.405Z,14.20
2022-10-18T05:58:42.148Z,14.50
2022-10-18T06:01:11.504Z,14.60
2022-10-18T06:03:39.548Z,14.60
2022-10-18T06:06:09.417Z,14.60
2022-10-18T06:08:38.846Z,13.60
2022-10-18T06:11:11.864Z,13.00
2022-10-18T06:13:46.123Z,13.90
2022-10-18T06:16:17.029Z,15.30
2022-10-18T06:18:48.689Z,15.60
2022-10-18T06:21:17.221Z,14.60
2022-10-18T06:23:49.087Z,14.80
2022-10-18T06:26:17.549Z,14.70
2022-10-18T06:28:47.459Z,14.70
2022-10-18T06:31:16.322Z,14.50
2022-10-18T06:33:45.594Z,14.90
2022-10-18T06:36:16.444Z,14.70
2022-10-18T06:38:45.071Z,14.80
2022-10-18T06:43:42.228Z,14.60
2022-10-18T06:46:11.797Z,14.80
2022-10-18T06:48:40.972Z,14.80
2022-10-18T06:51:10.779Z,16.20
2022-10-18T06:53:44.422Z,15.60
2022-10-18T06:56:16.927Z,14.60
2022-10-18T06:58:45.288Z,14.80
2022-10-18T07:01:17.868Z,15.00
2022-10-18T07:03:48.484Z,15.60
2022-10-18T07:06:19.415Z,15.10
2022-10-18T07:08:49.326Z,15.70
2022-10-18T07:11:21.373Z,16.60
2022-10-18T07:13:49.560Z,14.60
2022-10-18T07:16:20.526Z,16.70
2022-10-18T07:18:51.169Z,14.20
2022-10-18T07:21:22.128Z,16.40
2022-10-18T07:23:51.587Z,15.40
2022-10-18T07:26:22.658Z,17.30
2022-10-18T07:28:55.306Z,16.60
2022-10-18T07:31:25.123Z,16.20
2022-10-18T07:33:53.909Z,16.60
2022-10-18T07:36:22.470Z,17.10
2022-10-18T07:41:21.606Z,14.60
2022-10-18T07:43:52.355Z,15.80
2022-10-18T07:46:22.589Z,16.90
2022-10-18T07:48:52.721Z,16.30
2022-10-18T07:51:21.852Z,14.00
2022-10-18T07:53:50.273Z,14.10
2022-10-18T07:56:21.800Z,15.50
2022-10-18T07:58:52.552Z,14.90
2022-10-18T08:01:22.466Z,16.40
2022-10-18T08:03:52.963Z,13.90
2022-10-18T08:06:23.308Z,15.40
2022-10-18T08:08:52.247Z,14.50
2022-10-18T08:11:23.002Z,14.90
2022-10-18T08:13:52.345Z,15.30
2022-10-18T08:16:23.199Z,14.20
2022-10-18T08:18:53.287Z,16.80
2022-10-18T08:21:22.881Z,15.40
2022-10-18T08:23:51.608Z,14.20
2022-10-18T08:26:22.386Z,14.20
2022-10-18T08:28:58.299Z,14.60
2022-10-18T08:31:38.446Z,14.30
2022-10-18T08:34:08.100Z,14.20
2022-10-18T08:36:36.336Z,14.50
2022-10-18T08:42:15.020Z,14.40
2022-10-18T08:44:46.992Z,15.40
2022-10-18T08:47:20.594Z,15.80
2022-10-18T08:49:56.019Z,17.10
2022-10-18T08:52:34.556Z,16.40
2022-10-18T08:55:08.084Z,15.70
2022-10-18T09:00:17.592Z,17.80
2022-10-18T09:03:08.249Z,18.10
2022-10-18T09:05:50.159Z,16.90
2022-10-18T09:08:48.581Z,15.00
2022-10-18T09:11:33.073Z,15.00
2022-10-18T09:14:37.626Z,16.30
2022-10-18T09:17:16.443Z,15.60
2022-10-18T09:20:12.153Z,18.20
2022-10-18T09:22:53.680Z,15.30
2022-10-18T09:25:25.140Z,15.40
2022-10-18T09:28:05.200Z,15.80
2022-10-18T09:30:46.960Z,16.20
2022-10-18T09:33:29.205Z,16.90
2022-10-18T09:36:00.923Z,15.80
2022-10-18T09:38:36.353Z,18.00
2022-10-18T09:41:11.765Z,16.40
2022-10-18T09:43:51.653Z,16.60
2022-10-18T09:46:23.498Z,17.10
2022-10-18T09:48:56.412Z,17.10
2022-10-18T09:51:29.853Z,17.90
2022-10-18T09:54:14.888Z,18.30
2022-10-18T09:56:48.613Z,16.70
2022-10-18T09:59:41.419Z,17.40
2022-10-18T10:02:15.276Z,16.80
2022-10-18T10:04:43.591Z,16.50
2022-10-18T10:07:18.277Z,16.60
2022-10-18T10:09:50.400Z,17.20
2022-10-18T10:12:33.904Z,16.20
2022-10-18T10:15:17.957Z,16.10
2022-10-18T10:17:57.426Z,17.10
2022-10-18T10:20:31.659Z,18.30
2022-10-18T10:23:09.863Z,17.90
2022-10-18T10:25:39.850Z,16.00
2022-10-18T10:28:16.091Z,18.00
2022-10-18T10:30:44.410Z,16.20
2022-10-18T10:33:36.002Z,16.50
2022-10-18T10:36:16.739Z,16.70
2022-10-18T10:38:44.989Z,16.50
2022-10-18T10:41:23.412Z,18.00
2022-10-18T10:43:52.351Z,17.10
2022-10-18T10:46:23.152Z,18.20
2022-10-18T10:49:04.482Z,16.40
2022-10-18T10:51:43.576Z,17.00
2022-10-18T10:54:16.997Z,17.40
2022-10-18T10:56:57.573Z,20.30
2022-10-18T10:59:28.763Z,21.30
2022-10-18T11:02:21.901Z,20.00
2022-10-18T11:04:52.203Z,19.80
2022-10-18T11:07:27.136Z,22.30
2022-10-18T11:10:02.594Z,20.70
2022-10-18T11:12:37.509Z,20.40
2022-10-18T11:15:21.004Z,19.40
2022-10-18T11:18:09.248Z,19.40
2022-10-18T11:20:44.025Z,19.00
2022-10-18T11:23:14.642Z,19.60
2022-10-18T11:26:03.061Z,21.90
2022-10-18T11:28:59.235Z,22.60
2022-10-18T11:31:36.058Z,21.30
2022-10-18T11:34:25.787Z,23.80
2022-10-18T11:37:34.672Z,23.10
2022-10-18T11:40:02.846Z,25.60
2022-10-18T11:42:40.211Z,25.10
2022-10-18T11:48:18.892Z,26.00
2022-10-18T11:50:55.034Z,27.10
2022-10-18T11:53:35.854Z,25.00
2022-10-18T11:56:17.561Z,25.80
2022-10-18T11:59:11.010Z,23.30
2022-10-18T12:01:52.746Z,25.10
2022-10-18T12:04:25.751Z,23.50
2022-10-18T12:06:57.921Z,23.20
2022-10-18T12:09:32.528Z,23.60
2022-10-18T12:12:09.940Z,24.90
2022-10-18T12:14:43.078Z,23.50
2022-10-18T12:17:42.852Z,23.00
2022-10-18T12:20:18.666Z,21.90
2022-10-18T12:22:53.205Z,22.60
2022-10-18T12:27:58.117Z,24.10
2022-10-18T12:30:45.245Z,23.70
2022-10-18T12:33:28.234Z,24.80
2022-10-18T12:36:16.057Z,25.40
2022-10-18T12:38:46.891Z,24.80
2022-10-18T12:41:22.846Z,26.20
2022-10-18T12:43:57.036Z,26.30
2022-10-18T12:46:25.935Z,27.50
2022-10-18T12:49:06.215Z,28.40
2022-10-18T12:51:34.483Z,26.00
2022-10-18T12:54:13.180Z,25.00
2022-10-18T12:56:42.975Z,24.00
2022-10-18T12:59:51.618Z,22.30
2022-10-18T13:02:37.911Z,21.90
2022-10-18T13:05:56.426Z,20.90
2022-10-18T13:08:45.295Z,20.90
2022-10-18T13:11:40.436Z,21.80
2022-10-18T13:15:05.964Z,21.20
2022-10-18T13:17:47.021Z,24.40
2022-10-18T13:23:12.915Z,22.90
2022-10-18T13:26:00.031Z,23.50
2022-10-18T13:28:38.886Z,24.30
2022-10-18T13:31:20.715Z,23.70
2022-10-18T13:33:49.187Z,23.80
2022-10-18T13:36:26.153Z,23.00
2022-10-18T13:39:06.191Z,21.60
2022-10-18T13:42:30.074Z,20.90
2022-10-18T13:45:45.816Z,20.10
2022-10-18T13:48:50.340Z,19.90
2022-10-18T13:51:47.252Z,23.30
2022-10-18T13:54:45.504Z,24.70
2022-10-18T13:57:29.239Z,23.60
2022-10-18T14:00:35.198Z,22.90
2022-10-18T14:03:57.579Z,24.30
2022-10-18T14:06:28.030Z,23.80
2022-10-18T14:09:13.746Z,23.50
2022-10-18T14:11:58.857Z,23.90
2022-10-18T14:14:35.304Z,23.90
2022-10-18T14:17:18.038Z,24.50
2022-10-18T14:19:52.493Z,24.30
2022-10-18T14:22:26.223Z,23.50
2022-10-18T14:24:58.405Z,24.40
2022-10-18T14:27:32.499Z,24.20
2022-10-18T14:30:15.487Z,24.00
2022-10-18T14:32:47.222Z,24.50
2022-10-18T14:35:37.126Z,23.90
2022-10-18T14:38:07.162Z,23.40
2022-10-18T14:40:39.070Z,23.00
2022-10-18T14:43:14.986Z,23.20
2022-10-18T14:45:44.074Z,21.50
2022-10-18T14:48:18.240Z,20.90
2022-10-18T14:50:51.090Z,20.00
2022-10-18T14:53:22.012Z,19.40
2022-10-18T14:56:00.830Z,18.90
2022-10-18T14:58:31.289Z,18.60
2022-10-18T15:01:00.312Z,18.40
2022-10-18T15:03:29.229Z,18.10
2022-10-18T15:06:00.436Z,18.20
2022-10-18T15:08:35.531Z,18.10
2022-10-18T15:11:04.272Z,17.40
2022-10-18T15:13:35.506Z,17.70
2022-10-18T15:16:04.671Z,18.10
2022-10-18T15:18:33.016Z,17.30
2022-10-18T15:21:25.830Z,18.10
2022-10-18T15:23:55.898Z,17.60
2022-10-18T15:26:29.599Z,17.40
2022-10-18T15:29:01.669Z,17.90
2022-10-18T15:31:36.122Z,17.10
2022-10-18T15:34:16.830Z,16.20
2022-10-18T15:39:19.049Z,16.10
2022-10-18T15:41:50.812Z,15.80
2022-10-18T15:44:27.865Z,16.80
2022-10-18T15:47:10.111Z,16.60
2022-10-18T15:49:56.655Z,15.20
2022-10-18T15:52:42.000Z,15.90
2022-10-18T15:55:50.640Z,15.40
2022-10-18T15:58:22.829Z,16.50
2022-10-18T16:00:54.580Z,15.20
2022-10-18T16:03:24.159Z,14.40
2022-10-18T16:05:57.627Z,15.90
2022-10-18T16:08:30.366Z,15.00
2022-10-18T16:10:59.968Z,15.60
2022-10-18T16:13:28.396Z,14.10
2022-10-18T16:15:59.490Z,14.60
2022-10-18T16:18:28.874Z,15.80
2022-10-18T16:20:57.216Z,13.40
2022-10-18T16:23:28.571Z,15.00
2022-10-18T16:25:57.202Z,14.00
2022-10-18T16:28:27.109Z,13.00
2022-10-18T16:30:59.688Z,14.50
2022-10-18T16:33:28.599Z,14.10
2022-10-18T16:35:56.902Z,12.70
2022-10-18T16:38:32.825Z,11.90
2022-10-18T16:41:04.530Z,12.50
2022-10-18T16:43:33.137Z,13.80
2022-10-18T16:46:04.142Z,11.90
2022-10-18T16:51:01.326Z,12.10
2022-10-18T16:53:29.639Z,11.20
2022-10-18T16:56:00.452Z,11.00
2022-10-18T16:58:30.810Z,11.00
2022-10-18T17:01:01.904Z,12.20
2022-10-18T17:03:33.800Z,10.60
2022-10-18T17:06:02.048Z,10.50
2022-10-18T17:08:30.791Z,10.50
2022-10-18T17:11:01.696Z,10.10
2022-10-18T17:13:30.034Z,10.20
2022-10-18T17:21:03.149Z,10.40
2022-10-18T17:23:32.068Z,9.50
2022-10-18T17:26:05.344Z,9.80
2022-10-18T17:28:43.500Z,9.30
2022-10-18T17:31:11.928Z,11.60
2022-10-18T17:33:40.104Z,9.50
2022-10-18T17:36:09.964Z,10.10
2022-10-18T17:41:11.733Z,11.40
2022-10-18T17:46:08.869Z,10.70
2022-10-18T17:48:37.168Z,9.50
2022-10-18T17:51:11.077Z,10.50
2022-10-18T17:53:39.612Z,11.40
2022-10-18T17:56:08.707Z,9.00
2022-10-18T18:01:13.579Z,9.60
2022-10-18T18:03:42.735Z,8.40
2022-10-18T18:06:18.382Z,10.40
2022-10-18T18:08:48.204Z,8.00
2022-10-18T18:11:17.619Z,11.00
2022-10-18T18:13:45.823Z,8.40
2022-10-18T18:16:16.374Z,8.40
2022-10-18T18:18:45.254Z,8.50
2022-10-18T18:21:14.970Z,10.80
2022-10-18T18:23:43.211Z,8.50
2022-10-18T18:26:11.563Z,8.10
2022-10-18T18:31:10.219Z,8.00
2022-10-18T18:33:38.809Z,10.20
2022-10-18T18:36:08.400Z,8.30
2022-10-18T18:38:42.387Z,7.90
2022-10-18T18:41:13.377Z,8.10
2022-10-18T18:43:45.033Z,7.40
2022-10-18T18:46:14.153Z,10.20
2022-10-18T18:48:42.679Z,8.40
2022-10-18T18:51:15.336Z,10.10
2022-10-18T18:53:46.403Z,7.40
2022-10-18T18:56:16.964Z,7.70
2022-10-18T18:58:46.339Z,8.30
2022-10-18T19:01:18.408Z,7.60
2022-10-18T19:03:49.069Z,8.20
2022-10-18T19:06:19.380Z,8.20
2022-10-18T19:08:49.819Z,6.40
2022-10-18T19:11:21.664Z,8.70
2022-10-18T19:13:51.531Z,7.00
2022-10-18T19:16:27.865Z,6.30
2022-10-18T19:19:02.154Z,9.80
2022-10-18T19:21:32.977Z,7.90
2022-10-18T19:24:03.356Z,7.10
2022-10-18T19:26:36.676Z,7.40
2022-10-18T19:29:09.722Z,7.80
2022-10-18T19:31:39.336Z,7.10
2022-10-18T19:34:09.916Z,6.40
2022-10-18T19:36:39.636Z,7.60
2022-10-18T19:39:15.203Z,9.20
2022-10-18T19:41:43.378Z,6.10
2022-10-18T19:46:40.435Z,7.50
2022-10-18T19:49:08.816Z,6.80
2022-10-18T19:51:37.488Z,7.30
2022-10-18T19:54:06.120Z,6.50
2022-10-18T19:56:35.759Z,9.40
2022-10-18T19:59:04.557Z,9.20
2022-10-18T20:01:32.796Z,9.30
2022-10-18T20:04:01.011Z,6.20
2022-10-18T20:06:29.208Z,5.90
2022-10-18T20:08:57.427Z,9.20
2022-10-18T20:11:28.672Z,6.30
2022-10-18T20:13:59.594Z,7.20
2022-10-18T20:16:30.482Z,6.50
2022-10-18T20:19:00.605Z,9.30
2022-10-18T20:21:31.487Z,5.80
2022-10-18T20:26:28.435Z,6.70
2022-10-18T20:28:59.728Z,6.00
2022-10-18T20:31:30.653Z,8.60
2022-10-18T20:34:01.554Z,6.00
2022-10-18T20:36:31.780Z,6.20
2022-10-18T20:39:00.910Z,5.90
2022-10-18T20:41:32.313Z,8.30
2022-10-18T20:44:04.635Z,8.90
2022-10-18T20:46:35.668Z,5.60
2022-10-18T20:49:05.219Z,7.90
2022-10-18T20:51:34.112Z,6.40
2022-10-18T20:56:35.433Z,5.40
2022-10-18T20:59:06.610Z,5.60
2022-10-18T21:01:36.984Z,6.00
2022-10-18T21:04:07.886Z,6.90
2022-10-18T21:06:40.177Z,5.00
2022-10-18T21:09:11.857Z,6.60
2022-10-18T21:11:42.589Z,7.90
2022-10-18T21:14:15.855Z,6.50
2022-10-18T21:16:45.057Z,7.60
2022-10-18T21:19:15.916Z,5.50
2022-10-18T21:21:47.195Z,5.60
2022-10-18T21:26:45.161Z,5.00
2022-10-18T21:29:19.428Z,5.60
2022-10-18T21:31:50.010Z,7.40
2022-10-18T21:34:18.865Z,6.00
2022-10-18T21:36:48.875Z,4.80
2022-10-18T21:39:19.068Z,4.80
2022-10-18T21:41:48.087Z,3.70
2022-10-18T21:44:18.430Z,6.00
2022-10-18T21:49:16.438Z,6.30
2022-10-18T21:51:45.647Z,8.10
2022-10-18T21:54:16.820Z,8.10
2022-10-18T21:56:45.051Z,5.40
2022-10-18T22:01:45.064Z,6.40
2022-10-18T22:04:22.211Z,6.00
2022-10-18T22:09:21.881Z,7.00
2022-10-18T22:11:53.619Z,5.30
2022-10-18T22:14:22.550Z,6.60
2022-10-18T22:16:52.331Z,5.70
2022-10-18T22:19:20.819Z,7.80
2022-10-18T22:21:49.172Z,5.30
2022-10-18T22:26:47.301Z,8.30
2022-10-18T22:29:18.431Z,8.20
2022-10-18T22:31:48.948Z,6.60
2022-10-18T22:41:47.291Z,7.20
2022-10-18T22:44:16.090Z,4.80
2022-10-18T22:46:44.452Z,4.40
2022-10-18T22:49:13.310Z,6.70
2022-10-18T22:51:42.937Z,7.20
2022-10-18T22:54:11.410Z,4.40
2022-10-18T22:56:39.642Z,4.40
2022-10-18T22:59:07.790Z,7.70
2022-10-18T23:01:36.576Z,7.40
2022-10-18T23:04:05.264Z,6.40
2022-10-18T23:06:35.651Z,4.90
2022-10-18T23:09:09.311Z,5.80
2022-10-18T23:11:38.540Z,5.00
2022-10-18T23:14:08.192Z,5.80
2022-10-18T23:16:36.750Z,5.10
2022-10-18T23:19:04.998Z,7.80
2022-10-18T23:21:35.243Z,4.40
2022-10-18T23:24:05.064Z,5.80
2022-10-18T23:26:35.033Z,7.50
2022-10-18T23:29:03.235Z,7.00
2022-10-18T23:31:33.858Z,4.00
2022-10-18T23:34:04.889Z,3.90
2022-10-18T23:36:34.855Z,6.00
2022-10-18T23:39:06.191Z,5.50
2022-10-18T23:46:32.025Z,4.50
2022-10-18T23:49:00.163Z,5.80
2022-10-18T23:51:28.436Z,6.60
2022-10-18T23:56:26.636Z,3.90
